createdAt,value
2018-07-04T00:09:25.787Z,90.90
2018-07-04T00:14:38.517Z,90.50
2018-07-04T00:17:18.806Z,90.40
2018-07-04T00:19:58.001Z,90.50
2018-07-04T00:22:37.229Z,90.20
2018-07-04T00:27:50.027Z,91.20
2018-07-04T00:30:29.439Z,90.70
2018-07-04T00:33:08.878Z,90.50
2018-07-04T00:35:48.323Z,90.80
2018-07-04T00:38:27.908Z,91.00
2018-07-04T00:41:07.216Z,91.10
2018-07-04T00:43:46.553Z,91.00
2018-07-04T00:48:59.427Z,91.20
2018-07-04T00:51:39.790Z,91.50
2018-07-04T00:56:54.215Z,91.70
2018-07-04T00:59:33.530Z,91.80
2018-07-04T01:02:12.921Z,91.60
2018-07-04T01:04:52.369Z,91.90
2018-07-04T01:07:31.667Z,92.00
2018-07-04T01:10:10.937Z,92.20
2018-07-04T01:15:23.546Z,92.00
2018-07-04T01:18:02.895Z,92.10
2018-07-04T01:20:47.901Z,92.30
2018-07-04T01:23:27.042Z,92.20
2018-07-04T01:26:06.204Z,92.10
2018-07-04T01:28:49.603Z,92.50
2018-07-04T01:31:28.781Z,92.40
2018-07-04T01:34:08.667Z,92.10
2018-07-04T01:36:49.120Z,92.60
2018-07-04T01:42:02.788Z,92.90
2018-07-04T01:44:42.047Z,93.10
2018-07-04T01:47:21.379Z,93.50
2018-07-04T01:52:35.626Z,93.70
2018-07-04T01:55:14.751Z,94.00
2018-07-04T01:57:54.007Z,93.40
2018-07-04T02:13:22.246Z,93.00
2018-07-04T02:16:01.807Z,93.60
2018-07-04T02:23:52.989Z,93.90
2018-07-04T02:31:40.308Z,94.20
2018-07-04T02:34:25.202Z,93.90
2018-07-04T02:37:05.749Z,94.10
2018-07-04T02:39:45.032Z,93.90
2018-07-04T02:42:24.506Z,93.50
2018-07-04T02:45:04.158Z,93.70
2018-07-04T02:47:43.363Z,93.70
2018-07-04T02:50:22.878Z,93.80
2018-07-04T02:53:02.196Z,93.80
2018-07-04T02:55:41.370Z,94.00
2018-07-04T02:58:20.741Z,94.20
2018-07-04T03:00:59.903Z,94.10
2018-07-04T03:03:39.016Z,93.80
2018-07-04T03:06:18.165Z,94.10
2018-07-04T03:08:57.179Z,93.80
2018-07-04T03:11:36.374Z,94.10
2018-07-04T03:14:15.670Z,94.10
2018-07-04T03:16:54.898Z,94.50
2018-07-04T03:19:34.126Z,94.70
2018-07-04T03:22:13.333Z,94.90
2018-07-04T03:24:52.449Z,94.40
2018-07-04T03:30:05.069Z,95.20
2018-07-04T03:32:45.136Z,95.50
2018-07-04T03:35:24.270Z,95.90
2018-07-04T03:38:03.574Z,95.90
2018-07-04T03:40:42.954Z,96.20
2018-07-04T03:43:22.189Z,96.00
2018-07-04T03:48:35.124Z,95.50
2018-07-04T03:51:14.449Z,95.40
2018-07-04T03:53:53.527Z,95.20
2018-07-04T03:56:32.693Z,95.10
2018-07-04T03:59:11.717Z,95.00
2018-07-04T04:01:50.913Z,94.60
2018-07-04T04:07:04.740Z,93.30
2018-07-04T04:12:18.695Z,93.10
2018-07-04T04:14:57.851Z,93.50
2018-07-04T04:17:37.133Z,93.60
2018-07-04T04:22:53.679Z,92.60
2018-07-04T04:25:33.932Z,92.80
2018-07-04T04:28:13.066Z,92.60
2018-07-04T04:30:52.177Z,92.50
2018-07-04T04:33:31.217Z,93.10
2018-07-04T04:38:43.985Z,93.60
2018-07-04T04:43:57.162Z,93.20
2018-07-04T04:46:36.612Z,93.00
2018-07-04T04:49:15.903Z,92.20
2018-07-04T04:51:56.711Z,91.90
2018-07-04T04:54:35.989Z,91.90
2018-07-04T04:57:15.179Z,91.70
2018-07-04T04:59:54.269Z,91.50
2018-07-04T05:07:41.530Z,90.80
2018-07-04T05:10:20.950Z,90.50
2018-07-04T05:13:00.078Z,89.30
2018-07-04T05:18:13.010Z,89.40
2018-07-04T05:20:52.253Z,89.50
2018-07-04T05:28:39.548Z,89.40
2018-07-04T05:31:18.766Z,89.40
2018-07-04T05:33:58.267Z,88.40
2018-07-04T05:39:11.030Z,88.50
2018-07-04T05:41:50.334Z,88.00
2018-07-04T05:44:29.771Z,88.30
2018-07-04T05:49:42.474Z,86.60
2018-07-04T05:54:55.558Z,85.10
2018-07-04T05:57:34.691Z,85.20
2018-07-04T06:00:13.994Z,85.80
2018-07-04T06:05:26.822Z,85.90
2018-07-04T06:08:05.856Z,86.20
2018-07-04T06:10:45.026Z,85.50
2018-07-04T06:13:24.587Z,86.00
2018-07-04T06:16:03.953Z,85.70
2018-07-04T06:18:43.174Z,85.10
2018-07-04T06:21:22.644Z,84.60
2018-07-04T06:24:02.047Z,84.20
2018-07-04T06:26:41.462Z,84.40
2018-07-04T06:29:20.975Z,83.60
2018-07-04T06:32:00.301Z,83.10
2018-07-04T06:34:39.482Z,82.30
2018-07-04T06:37:18.882Z,82.10
2018-07-04T06:39:46.206Z,81.90
2018-07-04T06:42:13.077Z,81.10
2018-07-04T06:44:40.004Z,80.30
2018-07-04T06:47:06.791Z,79.10
2018-07-04T06:49:34.571Z,79.10
2018-07-04T06:52:01.783Z,78.80
2018-07-04T06:54:28.866Z,77.20
2018-07-04T06:56:55.714Z,77.70
2018-07-04T06:59:22.490Z,78.30
2018-07-04T07:01:49.496Z,78.20
2018-07-04T07:04:28.914Z,77.00
2018-07-04T07:07:08.350Z,76.80
2018-07-04T07:09:47.853Z,77.20
2018-07-04T07:12:27.223Z,76.20
2018-07-04T07:15:06.570Z,76.60
2018-07-04T07:17:45.852Z,76.30
2018-07-04T07:20:25.192Z,76.20
2018-07-04T07:23:05.689Z,75.40
2018-07-04T07:25:44.845Z,74.10
2018-07-04T07:28:24.166Z,74.50
2018-07-04T07:31:03.368Z,74.20
2018-07-04T07:33:42.815Z,72.90
2018-07-04T07:36:22.124Z,72.90
2018-07-04T07:39:01.199Z,72.10
2018-07-04T07:41:41.553Z,71.70
2018-07-04T07:44:20.682Z,71.30
2018-07-04T07:46:59.935Z,70.80
2018-07-04T07:49:40.302Z,68.30
2018-07-04T07:52:19.442Z,68.80
2018-07-04T07:57:32.014Z,68.70
2018-07-04T08:00:11.169Z,68.60
2018-07-04T08:02:50.454Z,69.00
2018-07-04T08:05:29.654Z,68.10
2018-07-04T08:08:09.015Z,67.30
2018-07-04T08:15:54.925Z,67.00
2018-07-04T08:21:07.778Z,67.10
2018-07-04T08:23:47.155Z,68.00
2018-07-04T08:26:27.313Z,65.60
2018-07-04T08:29:06.590Z,66.20
2018-07-04T08:31:45.807Z,65.60
2018-07-04T08:34:25.209Z,66.90
2018-07-04T08:37:04.610Z,66.10
